createdAt,value
2022-08-29T00:00:22.811Z,90.40
2022-08-29T00:02:53.698Z,90.74
2022-08-29T00:05:27.767Z,90.79
2022-08-29T00:07:55.584Z,90.50
2022-08-29T00:10:24.178Z,90.64
2022-08-29T00:12:52.314Z,90.20
2022-08-29T00:15:21.144Z,90.47
2022-08-29T00:17:49.431Z,91.54
2022-08-29T00:20:20.502Z,91.83
2022-08-29T00:22:52.324Z,91.55
2022-08-29T00:25:27.027Z,91.23
2022-08-29T00:27:55.240Z,91.45
2022-08-29T00:30:24.290Z,91.27
2022-08-29T00:32:52.636Z,91.46
2022-08-29T00:35:23.788Z,92.52
2022-08-29T00:37:54.643Z,92.52
2022-08-29T00:40:30.311Z,92.62
2022-08-29T00:42:58.440Z,91.93
2022-08-29T00:45:27.208Z,91.53
2022-08-29T00:47:58.532Z,91.19
2022-08-29T00:50:31.723Z,91.43
2022-08-29T00:53:02.586Z,91.61
2022-08-29T00:55:35.826Z,91.76
2022-08-29T00:58:08.730Z,91.76
2022-08-29T01:00:40.771Z,92.32
2022-08-29T01:03:08.682Z,92.01
2022-08-29T01:05:37.790Z,91.91
2022-08-29T01:08:07.929Z,91.90
2022-08-29T01:10:54.509Z,91.89
2022-08-29T01:13:25.906Z,91.86
2022-08-29T01:15:55.751Z,91.64
2022-08-29T01:18:25.006Z,92.14
2022-08-29T01:21:04.199Z,92.03
2022-08-29T01:23:40.520Z,91.78
2022-08-29T01:26:12.363Z,92.12
2022-08-29T01:28:43.179Z,92.59
2022-08-29T01:31:13.731Z,92.74
2022-08-29T01:33:44.866Z,91.91
2022-08-29T01:36:16.506Z,91.79
2022-08-29T01:38:44.376Z,91.86
2022-08-29T01:41:14.020Z,92.11
2022-08-29T01:43:48.717Z,91.65
2022-08-29T01:46:20.419Z,91.73
2022-08-29T01:48:48.955Z,91.68
2022-08-29T01:51:17.881Z,91.70
2022-08-29T01:53:46.152Z,92.07
2022-08-29T01:56:18.914Z,92.18
2022-08-29T01:58:48.508Z,91.89
2022-08-29T02:01:20.068Z,91.84
2022-08-29T02:03:50.017Z,92.18
2022-08-29T02:06:17.824Z,91.38
2022-08-29T02:08:47.051Z,91.53
2022-08-29T02:11:17.368Z,92.19
2022-08-29T02:13:48.502Z,93.01
2022-08-29T02:16:17.650Z,93.34
2022-08-29T02:18:46.105Z,93.91
2022-08-29T02:21:17.172Z,93.37
2022-08-29T02:23:45.095Z,92.81
2022-08-29T02:26:13.100Z,91.80
2022-08-29T02:28:42.730Z,91.96
2022-08-29T02:31:10.828Z,92.11
2022-08-29T02:33:39.685Z,92.10
2022-08-29T02:36:09.516Z,92.01
2022-08-29T02:38:39.222Z,91.91
2022-08-29T02:41:12.414Z,91.73
2022-08-29T02:43:43.421Z,91.88
2022-08-29T02:46:15.001Z,91.89
2022-08-29T02:48:47.569Z,91.93
2022-08-29T02:51:30.932Z,91.56
2022-08-29T02:53:58.909Z,91.65
2022-08-29T02:56:27.568Z,91.88
2022-08-29T02:58:56.628Z,91.68
2022-08-29T03:01:26.152Z,91.53
2022-08-29T03:03:54.221Z,91.55
2022-08-29T03:06:23.423Z,91.44
2022-08-29T03:08:51.579Z,91.53
2022-08-29T03:11:23.649Z,91.66
2022-08-29T03:13:51.362Z,91.68
2022-08-29T03:16:20.456Z,91.90
2022-08-29T03:18:48.131Z,92.09
2022-08-29T03:21:19.630Z,91.85
2022-08-29T03:23:47.721Z,91.88
2022-08-29T03:26:15.559Z,91.82
2022-08-29T03:28:43.248Z,91.81
2022-08-29T03:31:11.551Z,91.40
2022-08-29T03:33:41.839Z,91.63
2022-08-29T03:36:13.831Z,91.44
2022-08-29T03:38:43.400Z,91.49
2022-08-29T03:41:11.620Z,91.25
2022-08-29T03:43:39.951Z,91.32
2022-08-29T03:46:07.733Z,91.28
2022-08-29T03:48:35.424Z,91.04
2022-08-29T03:51:04.592Z,91.13
2022-08-29T03:53:33.390Z,91.30
2022-08-29T03:56:01.566Z,91.06
2022-08-29T03:58:29.283Z,91.06
2022-08-29T04:00:57.663Z,90.89
2022-08-29T04:03:30.904Z,90.90
2022-08-29T04:05:59.851Z,90.75
2022-08-29T04:08:28.913Z,90.78
2022-08-29T04:10:56.967Z,90.71
2022-08-29T04:13:24.742Z,90.86
2022-08-29T04:15:53.583Z,90.72
2022-08-29T04:18:22.508Z,90.98
2022-08-29T04:20:51.102Z,90.78
2022-08-29T04:23:18.797Z,90.81
2022-08-29T04:25:47.884Z,90.70
2022-08-29T04:28:17.698Z,90.43
2022-08-29T04:30:51.819Z,90.54
2022-08-29T04:33:22.558Z,90.61
2022-08-29T04:35:51.596Z,90.69
2022-08-29T04:38:19.640Z,90.78
2022-08-29T04:40:49.219Z,90.59
2022-08-29T04:43:16.887Z,90.39
2022-08-29T04:45:44.555Z,90.76
2022-08-29T04:48:12.217Z,90.63
2022-08-29T04:50:40.243Z,90.66
2022-08-29T04:53:08.555Z,90.58
2022-08-29T04:55:36.567Z,90.63
2022-08-29T04:58:06.417Z,90.68
2022-08-29T05:00:38.782Z,90.60
2022-08-29T05:03:07.775Z,90.85
2022-08-29T05:05:35.880Z,90.53
2022-08-29T05:08:04.125Z,90.65
2022-08-29T05:10:32.257Z,90.31
2022-08-29T05:12:59.946Z,90.19
2022-08-29T05:15:29.004Z,90.27
2022-08-29T05:17:57.108Z,90.15
2022-08-29T05:20:25.512Z,90.64
2022-08-29T05:22:53.394Z,90.34
2022-08-29T05:25:21.318Z,90.37
2022-08-29T05:27:48.968Z,90.06
2022-08-29T05:30:32.109Z,90.57
2022-08-29T05:33:04.731Z,89.90
2022-08-29T05:35:32.949Z,90.09
2022-08-29T05:38:00.727Z,89.98
2022-08-29T05:40:29.036Z,89.93
2022-08-29T05:42:57.471Z,89.17
2022-08-29T05:45:25.171Z,88.89
2022-08-29T05:47:52.923Z,89.04
2022-08-29T05:50:21.943Z,88.87
2022-08-29T05:52:50.160Z,89.27
2022-08-29T05:55:17.882Z,89.36
2022-08-29T05:57:46.073Z,89.72
2022-08-29T06:00:14.383Z,89.98
2022-08-29T06:02:42.235Z,89.89
2022-08-29T06:05:11.039Z,90.09
2022-08-29T06:07:40.560Z,89.34
2022-08-29T06:10:09.091Z,89.67
2022-08-29T06:12:37.202Z,90.05
2022-08-29T06:15:05.985Z,89.93
2022-08-29T06:17:35.528Z,89.38
2022-08-29T06:20:03.628Z,89.11
2022-08-29T06:22:31.655Z,89.18
2022-08-29T06:25:00.638Z,88.27
2022-08-29T06:27:31.985Z,89.46
2022-08-29T06:30:01.890Z,88.62
2022-08-29T06:32:29.962Z,88.49
2022-08-29T06:34:57.601Z,89.01
2022-08-29T06:37:25.915Z,89.19
2022-08-29T06:39:53.567Z,88.22
2022-08-29T06:42:24.979Z,88.27
2022-08-29T06:44:55.939Z,88.64
2022-08-29T06:47:23.960Z,88.07
2022-08-29T06:49:51.744Z,87.51
2022-08-29T06:52:19.686Z,87.37
2022-08-29T06:54:47.484Z,86.39
2022-08-29T06:57:15.484Z,86.45
2022-08-29T06:59:44.483Z,86.75
2022-08-29T07:02:12.661Z,86.32
2022-08-29T07:04:40.325Z,86.74
2022-08-29T07:07:09.044Z,85.58
2022-08-29T07:09:37.108Z,86.01
2022-08-29T07:12:05.999Z,85.76
2022-08-29T07:14:33.689Z,85.85
2022-08-29T07:17:03.495Z,85.74
2022-08-29T07:19:31.110Z,85.43
2022-08-29T07:21:59.835Z,84.56
2022-08-29T07:24:27.995Z,84.56
2022-08-29T07:26:56.196Z,84.21
2022-08-29T07:29:24.005Z,84.44
2022-08-29T07:31:51.651Z,84.65
2022-08-29T07:34:20.989Z,84.78
2022-08-29T07:36:48.968Z,84.17
2022-08-29T07:39:19.095Z,83.89
2022-08-29T07:41:48.198Z,84.13
2022-08-29T07:44:16.942Z,83.46
2022-08-29T07:46:45.383Z,82.94
2022-08-29T07:49:13.451Z,82.68
2022-08-29T07:51:44.179Z,82.74
2022-08-29T07:54:16.460Z,81.40
2022-08-29T07:56:44.346Z,81.50
2022-08-29T07:59:12.152Z,81.71
2022-08-29T08:01:41.593Z,80.78
2022-08-29T08:04:10.710Z,80.10
2022-08-29T08:06:40.807Z,79.53
2022-08-29T08:09:13.997Z,79.16
2022-08-29T08:11:43.316Z,78.99
2022-08-29T08:14:11.624Z,79.06
2022-08-29T08:16:44.125Z,79.72
2022-08-29T08:19:12.865Z,78.90
2022-08-29T08:21:49.963Z,79.03
2022-08-29T08:24:20.230Z,78.65
2022-08-29T08:26:48.969Z,77.53
2022-08-29T08:29:17.272Z,76.40
2022-08-29T08:31:45.493Z,75.33
2022-08-29T08:34:15.406Z,75.15
2022-08-29T08:36:45.199Z,74.56
2022-08-29T08:39:13.982Z,75.13
2022-08-29T08:41:51.935Z,74.80
2022-08-29T08:44:49.476Z,74.15
2022-08-29T08:47:23.575Z,73.63
2022-08-29T08:49:58.145Z,71.81
2022-08-29T08:52:32.470Z,72.03
2022-08-29T08:55:05.909Z,71.69
2022-08-29T08:57:40.538Z,70.45
2022-08-29T09:00:11.572Z,70.23
2022-08-29T09:02:49.066Z,70.11
2022-08-29T09:05:37.117Z,69.96
2022-08-29T09:08:20.429Z,68.84
2022-08-29T09:10:59.185Z,68.21
2022-08-29T09:13:43.836Z,68.26
2022-08-29T09:16:19.020Z,68.33
2022-08-29T09:18:52.548Z,68.51
2022-08-29T09:21:40.445Z,66.26
2022-08-29T09:24:13.847Z,65.84
2022-08-29T09:26:42.150Z,65.58
2022-08-29T09:29:13.175Z,64.61
2022-08-29T09:31:41.474Z,65.42
2022-08-29T09:34:12.776Z,62.91
2022-08-29T09:36:47.345Z,62.44
2022-08-29T09:39:21.575Z,62.70
2022-08-29T09:41:52.972Z,62.83
2022-08-29T09:44:26.000Z,61.52
2022-08-29T09:47:21.171Z,60.55
2022-08-29T09:50:11.518Z,60.17
2022-08-29T09:52:41.498Z,61.75
2022-08-29T09:55:22.021Z,59.82
2022-08-29T09:57:53.449Z,58.57
2022-08-29T10:00:29.555Z,58.00
2022-08-29T10:03:00.153Z,57.74
2022-08-29T10:05:44.585Z,58.90
2022-08-29T10:08:29.845Z,56.47
2022-08-29T10:11:01.181Z,57.41
2022-08-29T10:13:36.127Z,57.14
2022-08-29T10:16:16.463Z,56.20
2022-08-29T10:18:48.644Z,54.37
2022-08-29T10:21:24.370Z,55.39
2022-08-29T10:24:04.218Z,54.58
2022-08-29T10:26:41.677Z,55.43
2022-08-29T10:29:19.813Z,56.24
2022-08-29T10:31:56.870Z,53.07
2022-08-29T10:34:46.291Z,54.02
2022-08-29T10:37:21.766Z,53.94
2022-08-29T10:39:59.446Z,53.92
2022-08-29T10:42:27.630Z,52.27
2022-08-29T10:45:09.796Z,52.66
2022-08-29T10:47:42.098Z,52.10
2022-08-29T10:50:42.912Z,51.07
2022-08-29T10:53:17.038Z,50.21
2022-08-29T10:55:50.911Z,49.29
2022-08-29T10:58:31.827Z,50.54
2022-08-29T11:01:09.259Z,48.01
2022-08-29T11:03:47.491Z,49.05
2022-08-29T11:06:22.776Z,48.99
2022-08-29T11:08:56.582Z,49.06
2022-08-29T11:11:26.318Z,50.81
2022-08-29T11:14:00.222Z,50.39
2022-08-29T11:16:35.030Z,47.71
2022-08-29T11:19:13.560Z,47.21
2022-08-29T11:21:48.417Z,46.73
2022-08-29T11:24:19.533Z,46.03
2022-08-29T11:26:57.400Z,46.98
2022-08-29T11:29:36.919Z,47.38
2022-08-29T11:32:10.719Z,46.55
2022-08-29T11:35:07.076Z,49.93
2022-08-29T11:38:04.651Z,50.29
2022-08-29T11:43:47.996Z,49.86
2022-08-29T11:46:16.824Z,50.37
2022-08-29T11:48:46.305Z,50.50
2022-08-29T11:51:37.493Z,48.73
2022-08-29T11:54:43.855Z,52.21
2022-08-29T11:57:48.096Z,53.68
2022-08-29T12:00:29.295Z,52.40
2022-08-29T12:02:56.961Z,50.53
2022-08-29T12:05:51.990Z,50.77
2022-08-29T12:08:37.287Z,50.24
2022-08-29T12:11:06.726Z,51.78
2022-08-29T12:14:02.635Z,52.21
2022-08-29T12:16:50.278Z,52.79
2022-08-29T12:19:54.950Z,50.89
2022-08-29T12:22:55.100Z,54.17
2022-08-29T12:25:45.181Z,55.23
2022-08-29T12:28:57.076Z,56.07
2022-08-29T12:32:02.201Z,56.46
2022-08-29T12:34:49.143Z,56.48
2022-08-29T12:37:45.137Z,55.39
2022-08-29T12:40:32.188Z,54.89
2022-08-29T12:43:20.769Z,53.84
2022-08-29T12:45:50.990Z,55.48
2022-08-29T12:48:26.473Z,54.89
2022-08-29T12:50:54.256Z,55.55
2022-08-29T12:53:24.960Z,55.40
2022-08-29T12:55:56.416Z,53.31
2022-08-29T12:58:38.993Z,55.18
2022-08-29T13:01:10.564Z,53.80
2022-08-29T13:03:38.283Z,53.77
2022-08-29T13:06:11.409Z,53.94
2022-08-29T13:08:39.253Z,53.37
2022-08-29T13:11:10.922Z,52.95
2022-08-29T13:13:41.061Z,53.01
2022-08-29T13:16:22.633Z,52.90
2022-08-29T13:19:09.676Z,52.61
2022-08-29T13:21:38.593Z,52.05
2022-08-29T13:24:13.489Z,52.62
2022-08-29T13:26:50.695Z,53.16
2022-08-29T13:29:37.200Z,54.71
2022-08-29T13:32:23.368Z,54.93
2022-08-29T13:35:01.303Z,54.23
2022-08-29T13:37:31.697Z,54.86
2022-08-29T13:40:30.605Z,54.18
2022-08-29T13:43:00.217Z,54.10
2022-08-29T13:45:29.837Z,54.61
2022-08-29T13:48:11.443Z,54.93
2022-08-29T13:50:40.055Z,54.52
2022-08-29T13:53:07.936Z,53.22
2022-08-29T13:55:36.335Z,52.49
2022-08-29T13:58:04.517Z,53.33
2022-08-29T14:00:35.433Z,51.47
2022-08-29T14:03:06.426Z,52.82
2022-08-29T14:05:36.417Z,55.25
2022-08-29T14:08:05.979Z,53.68
2022-08-29T14:10:34.549Z,53.87
2022-08-29T14:13:02.235Z,54.09
2022-08-29T14:15:30.695Z,53.30
2022-08-29T14:18:00.008Z,54.34
2022-08-29T14:20:28.365Z,52.99
2022-08-29T14:22:55.982Z,53.34
2022-08-29T14:25:24.297Z,55.38
2022-08-29T14:27:53.798Z,56.11
2022-08-29T14:30:24.688Z,56.27
2022-08-29T14:32:53.463Z,57.09
2022-08-29T14:35:26.170Z,57.30
2022-08-29T14:37:55.846Z,54.84
2022-08-29T14:40:25.711Z,54.07
2022-08-29T14:42:53.888Z,54.09
2022-08-29T14:45:22.189Z,51.43
2022-08-29T14:47:49.829Z,51.17
2022-08-29T14:50:18.024Z,51.01
2022-08-29T14:52:47.079Z,50.87
2022-08-29T14:55:15.157Z,52.64
2022-08-29T14:57:43.402Z,53.08
2022-08-29T15:00:14.241Z,52.47
2022-08-29T15:02:43.168Z,51.56
2022-08-29T15:05:11.831Z,52.35
2022-08-29T15:07:40.138Z,50.95
2022-08-29T15:10:11.253Z,52.15
2022-08-29T15:12:38.945Z,53.52
2022-08-29T15:15:07.955Z,53.92
2022-08-29T15:17:35.694Z,56.58
2022-08-29T15:22:53.388Z,53.46
2022-08-29T15:25:22.407Z,55.37
2022-08-29T15:27:50.253Z,54.55
2022-08-29T15:30:21.180Z,52.57
2022-08-29T15:32:50.178Z,49.86
2022-08-29T15:35:17.842Z,49.67
2022-08-29T15:37:46.308Z,48.68
2022-08-29T15:40:14.402Z,50.13
2022-08-29T15:42:43.501Z,47.90
2022-08-29T15:45:11.595Z,47.01
2022-08-29T15:47:40.256Z,47.29
2022-08-29T15:50:14.594Z,47.46
2022-08-29T15:52:42.250Z,47.61
2022-08-29T15:55:10.411Z,47.72
2022-08-29T15:57:50.962Z,47.37
2022-08-29T16:00:30.194Z,47.36
2022-08-29T16:03:02.739Z,48.08
2022-08-29T16:05:30.790Z,49.57
2022-08-29T16:07:58.488Z,49.75
2022-08-29T16:10:26.831Z,51.23
2022-08-29T16:12:54.497Z,51.95
2022-08-29T16:15:24.012Z,51.79
2022-08-29T16:17:52.526Z,52.44
2022-08-29T16:20:20.647Z,53.47
2022-08-29T16:22:48.307Z,54.46
2022-08-29T16:25:16.669Z,55.05
2022-08-29T16:27:44.531Z,54.54
2022-08-29T16:30:13.314Z,54.88
2022-08-29T16:32:42.278Z,55.81
2022-08-29T16:35:11.498Z,54.32
2022-08-29T16:37:39.763Z,53.22
2022-08-29T16:40:08.673Z,54.04
2022-08-29T16:42:37.807Z,55.13
2022-08-29T16:45:07.410Z,54.49
2022-08-29T16:47:35.686Z,54.57
2022-08-29T16:50:05.228Z,54.93
2022-08-29T16:52:33.328Z,54.85
2022-08-29T16:55:00.982Z,55.18
2022-08-29T16:57:28.694Z,55.26
2022-08-29T16:59:56.423Z,55.79
2022-08-29T17:02:24.949Z,56.02
2022-08-29T17:04:52.667Z,57.16
2022-08-29T17:07:21.994Z,57.54
2022-08-29T17:09:48.552Z,58.18
2022-08-29T17:12:15.434Z,58.19
2022-08-29T17:14:42.886Z,58.82
2022-08-29T17:17:10.619Z,59.13
2022-08-29T17:19:39.321Z,60.26
2022-08-29T17:22:08.672Z,61.02
2022-08-29T17:24:37.625Z,60.44
2022-08-29T17:27:05.993Z,60.23
2022-08-29T17:29:34.133Z,60.51
2022-08-29T17:32:02.109Z,60.53
2022-08-29T17:34:29.760Z,60.71
2022-08-29T17:36:58.008Z,61.25
2022-08-29T17:39:25.628Z,61.57
2022-08-29T17:41:56.523Z,62.16
2022-08-29T17:44:25.571Z,62.44
2022-08-29T17:46:53.949Z,62.82
2022-08-29T17:49:21.920Z,62.93
2022-08-29T17:51:54.891Z,63.81
2022-08-29T17:54:24.901Z,64.52
2022-08-29T17:56:55.783Z,65.00
2022-08-29T17:59:28.048Z,65.90
2022-08-29T18:01:57.059Z,66.45
2022-08-29T18:04:26.289Z,67.79
2022-08-29T18:06:54.501Z,68.22
2022-08-29T18:09:23.647Z,69.13
2022-08-29T18:11:54.289Z,70.33
2022-08-29T18:14:24.547Z,71.16
2022-08-29T18:16:53.746Z,72.11
2022-08-29T18:19:22.950Z,72.88
2022-08-29T18:21:51.859Z,73.00
2022-08-29T18:24:20.010Z,72.68
2022-08-29T18:26:49.326Z,73.27
2022-08-29T18:29:17.443Z,73.84
2022-08-29T18:31:46.474Z,74.69
2022-08-29T18:34:15.098Z,74.92
2022-08-29T18:36:45.071Z,75.69
2022-08-29T18:39:13.966Z,75.78
2022-08-29T18:41:41.973Z,75.22
2022-08-29T18:44:10.048Z,75.07
2022-08-29T18:49:44.950Z,75.24
2022-08-29T18:52:13.274Z,75.67
2022-08-29T18:54:41.171Z,76.90
2022-08-29T18:57:10.716Z,78.55
2022-08-29T18:59:40.017Z,79.34
2022-08-29T19:02:11.586Z,80.72
2022-08-29T19:04:41.373Z,82.45
2022-08-29T19:07:09.351Z,81.58
2022-08-29T19:09:37.030Z,80.91
2022-08-29T19:12:05.620Z,81.58
2022-08-29T19:14:45.800Z,81.46
2022-08-29T19:17:14.274Z,81.13
2022-08-29T19:20:00.905Z,80.97
2022-08-29T19:22:29.050Z,80.82
2022-08-29T19:24:56.720Z,81.61
2022-08-29T19:27:42.245Z,82.29
2022-08-29T19:30:12.565Z,82.14
2022-08-29T19:32:40.536Z,82.00
2022-08-29T19:35:10.979Z,82.51
2022-08-29T19:37:39.718Z,82.73
2022-08-29T19:40:10.319Z,83.08
2022-08-29T19:42:38.724Z,82.59
2022-08-29T19:45:09.658Z,83.00
2022-08-29T19:47:38.008Z,83.11
2022-08-29T19:50:07.398Z,83.82
2022-08-29T19:52:36.960Z,83.39
2022-08-29T19:55:06.112Z,83.46
2022-08-29T19:57:33.807Z,84.16
2022-08-29T20:00:01.534Z,84.43
2022-08-29T20:02:29.718Z,84.17
2022-08-29T20:04:57.439Z,84.27
2022-08-29T20:07:26.328Z,84.39
2022-08-29T20:09:56.078Z,84.72
2022-08-29T20:12:23.960Z,84.64
2022-08-29T20:14:52.283Z,84.42
2022-08-29T20:17:20.619Z,84.67
2022-08-29T20:19:49.240Z,84.82
2022-08-29T20:22:17.028Z,84.83
2022-08-29T20:24:48.663Z,84.86
2022-08-29T20:27:17.846Z,85.19
2022-08-29T20:29:45.825Z,85.20
2022-08-29T20:32:13.478Z,85.21
2022-08-29T20:34:41.455Z,85.43
2022-08-29T20:37:12.175Z,85.25
2022-08-29T20:39:42.195Z,85.39
2022-08-29T20:42:10.238Z,84.83
2022-08-29T20:44:42.082Z,85.07
2022-08-29T20:47:12.501Z,84.67
2022-08-29T20:49:43.318Z,84.62
2022-08-29T20:52:13.913Z,84.92
2022-08-29T20:54:41.690Z,85.32
2022-08-29T20:57:14.748Z,85.61
2022-08-29T20:59:44.830Z,85.55
2022-08-29T21:02:13.851Z,86.34
2022-08-29T21:04:59.719Z,88.12
2022-08-29T21:07:27.417Z,86.54
2022-08-29T21:09:56.113Z,86.00
2022-08-29T21:12:27.294Z,85.94
2022-08-29T21:14:56.807Z,85.92
2022-08-29T21:17:24.439Z,86.30
2022-08-29T21:19:52.662Z,86.43
2022-08-29T21:22:24.302Z,86.16
2022-08-29T21:24:55.504Z,86.11
2022-08-29T21:27:23.357Z,86.24
2022-08-29T21:29:51.235Z,86.38
2022-08-29T21:32:22.350Z,86.61
2022-08-29T21:34:50.844Z,86.74
2022-08-29T21:37:18.648Z,86.83
2022-08-29T21:39:48.119Z,86.63
2022-08-29T21:42:16.039Z,86.56
2022-08-29T21:44:44.068Z,86.30
2022-08-29T21:47:15.936Z,86.44
2022-08-29T21:49:48.444Z,86.80
2022-08-29T21:52:16.059Z,86.86
2022-08-29T21:54:44.019Z,86.60
2022-08-29T21:57:17.269Z,86.67
2022-08-29T21:59:45.715Z,86.63
2022-08-29T22:02:14.409Z,86.96
2022-08-29T22:04:42.814Z,86.99
2022-08-29T22:07:13.191Z,87.23
2022-08-29T22:09:40.827Z,87.25
2022-08-29T22:12:09.379Z,86.89
2022-08-29T22:14:55.694Z,87.16
2022-08-29T22:17:23.620Z,87.63
2022-08-29T22:19:51.582Z,87.35
2022-08-29T22:22:20.589Z,87.67
2022-08-29T22:24:48.555Z,87.58
2022-08-29T22:27:16.211Z,87.60
2022-08-29T22:29:44.324Z,87.63
2022-08-29T22:32:12.400Z,87.30
2022-08-29T22:34:41.385Z,87.88
2022-08-29T22:37:09.079Z,88.53
2022-08-29T22:39:38.397Z,88.96
2022-08-29T22:42:06.441Z,88.89
2022-08-29T22:45:04.326Z,89.06
2022-08-29T22:47:22.458Z,88.92
2022-08-29T22:49:50.584Z,89.19
2022-08-29T22:52:19.464Z,89.40
2022-08-29T22:54:49.084Z,89.19
2022-08-29T22:57:19.083Z,89.20
2022-08-29T22:59:49.669Z,89.21
2022-08-29T23:02:18.495Z,89.17
2022-08-29T23:04:47.391Z,89.00
2022-08-29T23:07:15.293Z,88.55
2022-08-29T23:09:44.071Z,88.36
2022-08-29T23:12:14.562Z,88.21
2022-08-29T23:14:46.385Z,88.34
2022-08-29T23:17:14.974Z,88.47
2022-08-29T23:19:43.628Z,88.39
2022-08-29T23:22:13.077Z,88.70
2022-08-29T23:24:53.910Z,88.70
2022-08-29T23:27:28.699Z,88.45
2022-08-29T23:29:57.338Z,88.41
2022-08-29T23:32:24.990Z,88.63
2022-08-29T23:34:54.028Z,88.53
2022-08-29T23:37:21.761Z,88.40
2022-08-29T23:39:51.264Z,88.56
2022-08-29T23:42:19.424Z,88.52
2022-08-29T23:44:49.015Z,87.98
2022-08-29T23:47:17.461Z,88.13
2022-08-29T23:49:45.534Z,87.90
2022-08-29T23:52:13.392Z,87.80
2022-08-29T23:54:41.070Z,87.22
2022-08-29T23:57:08.792Z,87.50
2022-08-29T23:59:54.973Z,87.39
